Airfield :
LOGIN :

Register | Disclaimer

   EN    FR    IT 

 










Legend :    VFR   Marginal VFR   IFR   Intensive IFR   Very Intensive IFR
Visi :
Ceiling :
>= 8 km
>= 3000ft
5 to 8 km
1000 to 3000 ft
1500m to 5 km
500 to 1000 ft
800 to 1500m
200 to 500 ft
< 800m
< 200 ft
Symbols :   Thunderstorms  Fog  Heavy snow  Heavy precipitations  Wind > 20 kt
SIGMETs :     Misc.  Thunderstorms  Icing  Turbulence  Mountain Waves  Volcanic Ashes






- Airport Elevation : 505 ft
- IATA code : SXB


LFST - Strasbourg

CURRENT METAR :
  • 170730Z AUTO 35007KT 3100 BR OVC004 03/03 Q1008 BECMG 7000 NSW OVC010

EXPIRED METARs :
  • 170700Z AUTO 36005KT 3900 BR OVC004 03/03 Q1008 TEMPO VV/// BECMG 6000 NSW
  • 170630Z AUTO 33006KT 4600 BR OVC004 03/03 Q1009 TEMPO VV/// BECMG 6000 NSW
  • 170600Z AUTO 36005KT 3500 BR OVC003 03/03 Q1009 TEMPO 1200 BR BECMG VV///
  • 170530Z AUTO 35004KT 2000 BR VV/// 03/03 Q1009 BECMG 6000 NSW BKN006
  • 170500Z AUTO 36005KT 1200 0800 R23/1000D R05/1800N BCFG VV/// 03/03 Q1009 TEMPO 0200 FG

TAF AMD TAF LFST
Valid from the 17 at 07:00 until the 18 at 06:00 UTC


170710Z 1707/1806 35005KT 4000 BR OVC004
PROB30
TEMPO 1707/1708 0400 FG VV///
BECMG 1708/1711 7000 NSW OVC010
BECMG 1711/1713 FEW015 BKN020
TEMPO 1711/1715 4000 -RA BKN013
TEMPO 1715/1806 -RA
BECMG 1718/1720 20008KT
PROB40
TEMPO 1800/1806 BKN006



MET'MAP, your aeronautical weather chart ! - Copyright ORBIFLY December 2007 - Disclaimer

ORBIFLY MET'MAP TEAM :

Programming & Development : Alexandra Zaïnal
Concept & Development : Baudouin d'Aumeries
Co-Development & Prog : Marc-Olivier Méhu
Technical & hardware support : Manuel Goepfert

Contact : metmap@orbifly.com




SOURCES & CREDITS :

   NOAA